Terminal Aerodrome Forecast
Issued by NWS

Home | Current Version | Previous Version | Text Only | Print | Product List | Glossary On
Versions: 1 2 3 4 5 6 7 8 9 10 11 12 13 14 15 16 17
000
FTUS43 KGRR 300500
TAFJXN
TAF
KJXN 300540Z 3006/3106 33016G24KT P6SM -SN OVC040
      TEMPO 3006/3008 3SM -SN OVC025
     FM301100 33010KT P6SM SCT035
     FM301800 30008KT P6SM BKN035=

USA.gov is the U.S. government's official web portal to all federal, state and local government web resources and services.